sensor_id;sensor_type;location;lat;lon;timestamp;pressure;altitude;pressure_sealevel;temperature;humidity
73429;BME280;61643;49.564;17.412;2024-02-21T00:00:56;98878.94;;;3.79;100.00
73429;BME280;61643;49.564;17.412;2024-02-21T00:03:22;98874.63;;;3.78;100.00
73429;BME280;61643;49.564;17.412;2024-02-21T00:05:48;98872.38;;;3.75;100.00
73429;BME280;61643;49.564;17.412;2024-02-21T00:08:14;98874.44;;;3.79;100.00
73429;BME280;61643;49.564;17.412;2024-02-21T00:10:40;98875.25;;;3.80;100.00
73429;BME280;61643;49.564;17.412;2024-02-21T00:13:06;98868.31;;;3.79;100.00
73429;BME280;61643;49.564;17.412;2024-02-21T00:15:32;98866.66;;;3.78;100.00
73429;BME280;61643;49.564;17.412;2024-02-21T00:17:58;98856.81;;;3.78;100.00
73429;BME280;61643;49.564;17.412;2024-02-21T00:20:24;98863.59;;;3.81;100.00
73429;BME280;61643;49.564;17.412;2024-02-21T00:22:52;98857.44;;;3.80;100.00
73429;BME280;61643;49.564;17.412;2024-02-21T00:25:18;98858.84;;;3.76;100.00
73429;BME280;61643;49.564;17.412;2024-02-21T00:27:44;98860.06;;;3.74;100.00
73429;BME280;61643;49.564;17.412;2024-02-21T00:30:10;98860.88;;;3.68;100.00
73429;BME280;61643;49.564;17.412;2024-02-21T00:32:36;98846.06;;;3.59;100.00
73429;BME280;61643;49.564;17.412;2024-02-21T00:35:02;98862.88;;;3.66;100.00
73429;BME280;61643;49.564;17.412;2024-02-21T00:37:28;98852.63;;;3.63;100.00
73429;BME280;61643;49.564;17.412;2024-02-21T00:39:54;98847.75;;;3.66;100.00
73429;BME280;61643;49.564;17.412;2024-02-21T00:42:20;98850.22;;;3.68;100.00
73429;BME280;61643;49.564;17.412;2024-02-21T00:44:47;98846.34;;;3.70;100.00
73429;BME280;61643;49.564;17.412;2024-02-21T00:47:13;98836.94;;;3.74;100.00
73429;BME280;61643;49.564;17.412;2024-02-21T00:49:38;98837.78;;;3.81;100.00
73429;BME280;61643;49.564;17.412;2024-02-21T00:52:04;98851.13;;;3.88;100.00
73429;BME280;61643;49.564;17.412;2024-02-21T00:54:30;98840.28;;;3.89;100.00
73429;BME280;61643;49.564;17.412;2024-02-21T00:56:56;98835.16;;;3.88;100.00
73429;BME280;61643;49.564;17.412;2024-02-21T00:59:22;98835.75;;;3.83;100.00
73429;BME280;61643;49.564;17.412;2024-02-21T01:01:48;98840.03;;;3.78;100.00
73429;BME280;61643;49.564;17.412;2024-02-21T01:04:15;98834.69;;;3.78;100.00
73429;BME280;61643;49.564;17.412;2024-02-21T01:06:41;98830.19;;;3.78;100.00
73429;BME280;61643;49.564;17.412;2024-02-21T01:09:10;98830.63;;;3.82;100.00
73429;BME280;61643;49.564;17.412;2024-02-21T01:11:37;98830.63;;;3.82;100.00
73429;BME280;61643;49.564;17.412;2024-02-21T01:14:03;98824.28;;;3.83;100.00
73429;BME280;61643;49.564;17.412;2024-02-21T01:16:29;98831.63;;;3.81;100.00
73429;BME280;61643;49.564;17.412;2024-02-21T01:18:54;98831.22;;;3.84;100.00
73429;BME280;61643;49.564;17.412;2024-02-21T01:21:21;98821.84;;;3.88;100.00
73429;BME280;61643;49.564;17.412;2024-02-21T01:23:47;98824.50;;;3.88;100.00
73429;BME280;61643;49.564;17.412;2024-02-21T01:26:13;98818.75;;;3.91;100.00
73429;BME280;61643;49.564;17.412;2024-02-21T01:28:41;98820.41;;;3.92;100.00
73429;BME280;61643;49.564;17.412;2024-02-21T01:31:07;98801.34;;;3.82;100.00
73429;BME280;61643;49.564;17.412;2024-02-21T01:33:33;98816.75;;;3.93;100.00
73429;BME280;61643;49.564;17.412;2024-02-21T01:36:04;98816.53;;;3.94;100.00
73429;BME280;61643;49.564;17.412;2024-02-21T01:38:32;98806.09;;;3.93;100.00
73429;BME280;61643;49.564;17.412;2024-02-21T01:40:59;98814.25;;;3.91;100.00
73429;BME280;61643;49.564;17.412;2024-02-21T01:43:25;98802.78;;;3.84;100.00
73429;BME280;61643;49.564;17.412;2024-02-21T01:45:53;98808.94;;;3.85;100.00
73429;BME280;61643;49.564;17.412;2024-02-21T01:48:20;98807.28;;;3.84;100.00
73429;BME280;61643;49.564;17.412;2024-02-21T01:50:49;98801.94;;;3.84;100.00
73429;BME280;61643;49.564;17.412;2024-02-21T01:53:19;98804.59;;;3.84;100.00
73429;BME280;61643;49.564;17.412;2024-02-21T01:55:47;98803.81;;;3.83;100.00
73429;BME280;61643;49.564;17.412;2024-02-21T01:58:16;98794.19;;;3.82;100.00
73429;BME280;61643;49.564;17.412;2024-02-21T02:00:46;98805.44;;;3.84;100.00
73429;BME280;61643;49.564;17.412;2024-02-21T02:03:13;98805.25;;;3.86;100.00
73429;BME280;61643;49.564;17.412;2024-02-21T02:05:46;98792.53;;;3.88;100.00
73429;BME280;61643;49.564;17.412;2024-02-21T02:08:14;98796.66;;;3.90;100.00
73429;BME280;61643;49.564;17.412;2024-02-21T02:10:40;98790.28;;;3.85;100.00
73429;BME280;61643;49.564;17.412;2024-02-21T02:13:06;98782.69;;;3.82;100.00
73429;BME280;61643;49.564;17.412;2024-02-21T02:15:39;98782.53;;;3.90;100.00
73429;BME280;61643;49.564;17.412;2024-02-21T02:18:06;98780.06;;;3.88;100.00
73429;BME280;61643;49.564;17.412;2024-02-21T02:20:32;98788.06;;;3.95;100.00
73429;BME280;61643;49.564;17.412;2024-02-21T02:23:11;98781.53;;;3.97;100.00
73429;BME280;61643;49.564;17.412;2024-02-21T02:25:38;98769.63;;;3.93;100.00
73429;BME280;61643;49.564;17.412;2024-02-21T02:28:06;98767.81;;;4.01;100.00
73429;BME280;61643;49.564;17.412;2024-02-21T02:30:33;98764.94;;;4.02;100.00
73429;BME280;61643;49.564;17.412;2024-02-21T02:33:00;98758.56;;;3.96;100.00
73429;BME280;61643;49.564;17.412;2024-02-21T02:35:26;98759.19;;;3.98;100.00
73429;BME280;61643;49.564;17.412;2024-02-21T02:37:52;98753.84;;;3.98;100.00
73429;BME280;61643;49.564;17.412;2024-02-21T02:40:18;98753.25;;;4.03;100.00
73429;BME280;61643;49.564;17.412;2024-02-21T02:42:44;98749.59;;;4.04;100.00
73429;BME280;61643;49.564;17.412;2024-02-21T02:45:10;98747.53;;;4.06;100.00
73429;BME280;61643;49.564;17.412;2024-02-21T02:47:36;98748.97;;;4.09;100.00
73429;BME280;61643;49.564;17.412;2024-02-21T02:50:02;98752.66;;;4.08;100.00
73429;BME280;61643;49.564;17.412;2024-02-21T02:52:28;98739.75;;;4.05;100.00
73429;BME280;61643;49.564;17.412;2024-02-21T02:54:54;98738.28;;;4.02;100.00
73429;BME280;61643;49.564;17.412;2024-02-21T02:57:21;98750.81;;;4.08;100.00
73429;BME280;61643;49.564;17.412;2024-02-21T02:59:51;98750.81;;;4.08;100.00
73429;BME280;61643;49.564;17.412;2024-02-21T03:02:17;98750.41;;;4.11;100.00
73429;BME280;61643;49.564;17.412;2024-02-21T03:04:44;98743.66;;;4.09;100.00
73429;BME280;61643;49.564;17.412;2024-02-21T03:07:11;98750.41;;;4.11;100.00
73429;BME280;61643;49.564;17.412;2024-02-21T03:09:40;98738.75;;;4.12;100.00
73429;BME280;61643;49.564;17.412;2024-02-21T03:12:06;98746.09;;;4.17;100.00
73429;BME280;61643;49.564;17.412;2024-02-21T03:14:32;98745.69;;;4.20;100.00
73429;BME280;61643;49.564;17.412;2024-02-21T03:16:58;98748.16;;;4.21;100.00
73429;BME280;61643;49.564;17.412;2024-02-21T03:19:25;98736.50;;;4.22;100.00
73429;BME280;61643;49.564;17.412;2024-02-21T03:21:52;98740.38;;;4.20;100.00
73429;BME280;61643;49.564;17.412;2024-02-21T03:24:21;98738.13;;;4.23;100.00
73429;BME280;61643;49.564;17.412;2024-02-21T03:26:48;98728.09;;;4.25;100.00
73429;BME280;61643;49.564;17.412;2024-02-21T03:29:15;98734.66;;;4.29;100.00
73429;BME280;61643;49.564;17.412;2024-02-21T03:31:42;98715.00;;;4.30;100.00
73429;BME280;61643;49.564;17.412;2024-02-21T03:34:10;98720.50;;;4.29;100.00
73429;BME280;61643;49.564;17.412;2024-02-21T03:36:36;98717.84;;;4.35;100.00
73429;BME280;61643;49.564;17.412;2024-02-21T03:39:02;98718.47;;;4.37;100.00
73429;BME280;61643;49.564;17.412;2024-02-21T03:41:28;98725.44;;;4.38;100.00
73429;BME280;61643;49.564;17.412;2024-02-21T03:43:54;98731.56;;;4.39;100.00
73429;BME280;61643;49.564;17.412;2024-02-21T03:46:20;98723.19;;;4.35;100.00
73429;BME280;61643;49.564;17.412;2024-02-21T03:48:46;98725.00;;;4.35;100.00
73429;BME280;61643;49.564;17.412;2024-02-21T03:51:12;98725.66;;;4.37;100.00
73429;BME280;61643;49.564;17.412;2024-02-21T03:53:38;98732.00;;;4.36;100.00
73429;BME280;61643;49.564;17.412;2024-02-21T03:56:04;98734.47;;;4.37;100.00
73429;BME280;61643;49.564;17.412;2024-02-21T03:58:32;98732.81;;;4.36;100.00
73429;BME280;61643;49.564;17.412;2024-02-21T04:01:01;98735.06;;;4.39;100.00
73429;BME280;61643;49.564;17.412;2024-02-21T04:03:27;98731.81;;;4.37;100.00
73429;BME280;61643;49.564;17.412;2024-02-21T04:05:53;98730.97;;;4.37;100.00
73429;BME280;61643;49.564;17.412;2024-02-21T04:08:19;98719.91;;;4.33;100.00
73429;BME280;61643;49.564;17.412;2024-02-21T04:10:45;98724.41;;;4.33;100.00
73429;BME280;61643;49.564;17.412;2024-02-21T04:13:11;98722.16;;;4.36;100.00
73429;BME280;61643;49.564;17.412;2024-02-21T04:15:37;98730.75;;;4.38;100.00
73429;BME280;61643;49.564;17.412;2024-02-21T04:18:03;98722.97;;;4.37;100.00
73429;BME280;61643;49.564;17.412;2024-02-21T04:20:29;98728.31;;;4.37;100.00
73429;BME280;61643;49.564;17.412;2024-02-21T04:22:56;98714.16;;;4.36;100.00
73429;BME280;61643;49.564;17.412;2024-02-21T04:25:22;98728.31;;;4.37;100.00
73429;BME280;61643;49.564;17.412;2024-02-21T04:27:48;98718.06;;;4.34;100.00
73429;BME280;61643;49.564;17.412;2024-02-21T04:30:14;98718.66;;;4.36;100.00
73429;BME280;61643;49.564;17.412;2024-02-21T04:32:41;98711.09;;;4.33;100.00
73429;BME280;61643;49.564;17.412;2024-02-21T04:35:07;98715.19;;;4.35;100.00
73429;BME280;61643;49.564;17.412;2024-02-21T04:37:34;98712.75;;;4.34;100.00
73429;BME280;61643;49.564;17.412;2024-02-21T04:40:00;98707.41;;;4.34;100.00
73429;BME280;61643;49.564;17.412;2024-02-21T04:42:26;98704.53;;;4.35;100.00
73429;BME280;61643;49.564;17.412;2024-02-21T04:44:52;98704.94;;;4.32;100.00
73429;BME280;61643;49.564;17.412;2024-02-21T04:47:18;98707.81;;;4.37;100.00
73429;BME280;61643;49.564;17.412;2024-02-21T04:49:45;98703.69;;;4.35;100.00
73429;BME280;61643;49.564;17.412;2024-02-21T04:52:12;98706.16;;;4.36;100.00
73429;BME280;61643;49.564;17.412;2024-02-21T04:54:38;98705.34;;;4.42;100.00
73429;BME280;61643;49.564;17.412;2024-02-21T04:57:04;98699.59;;;4.45;100.00
73429;BME280;61643;49.564;17.412;2024-02-21T04:59:30;98693.84;;;4.48;100.00
73429;BME280;61643;49.564;17.412;2024-02-21T05:01:56;98694.91;;;4.47;100.00
73429;BME280;61643;49.564;17.412;2024-02-21T05:04:22;98699.81;;;4.51;100.00
73429;BME280;61643;49.564;17.412;2024-02-21T05:06:48;98693.66;;;4.43;100.00
73429;BME280;61643;49.564;17.412;2024-02-21T05:09:14;98703.50;;;4.50;100.00
73429;BME280;61643;49.564;17.412;2024-02-21T05:11:40;98698.38;;;4.48;100.00
73429;BME280;61643;49.564;17.412;2024-02-21T05:14:06;98696.09;;;4.45;100.00
73429;BME280;61643;49.564;17.412;2024-02-21T05:16:32;98677.47;;;4.32;100.00
73429;BME280;61643;49.564;17.412;2024-02-21T05:18:58;98694.06;;;4.40;100.00
73429;BME280;61643;49.564;17.412;2024-02-21T05:21:24;98694.06;;;4.40;100.00
73429;BME280;61643;49.564;17.412;2024-02-21T05:23:51;98686.09;;;4.40;100.00
73429;BME280;61643;49.564;17.412;2024-02-21T05:26:24;98683.00;;;4.50;100.00
73429;BME280;61643;49.564;17.412;2024-02-21T05:28:51;98669.06;;;4.48;100.00
73429;BME280;61643;49.564;17.412;2024-02-21T05:31:18;98680.13;;;4.52;100.00
73429;BME280;61643;49.564;17.412;2024-02-21T05:33:44;98682.16;;;4.56;100.00
73429;BME280;61643;49.564;17.412;2024-02-21T05:36:11;98664.75;;;4.47;100.00
73429;BME280;61643;49.564;17.412;2024-02-21T05:38:37;98674.38;;;4.41;100.00
73429;BME280;61643;49.564;17.412;2024-02-21T05:41:03;98686.09;;;4.40;100.00
73429;BME280;61643;49.564;17.412;2024-02-21T05:43:29;98684.84;;;4.36;100.00
73429;BME280;61643;49.564;17.412;2024-02-21T05:45:56;98687.94;;;4.33;100.00
73429;BME280;61643;49.564;17.412;2024-02-21T05:48:22;98684.44;;;4.26;100.00
73429;BME280;61643;49.564;17.412;2024-02-21T05:50:49;98677.25;;;4.27;100.00
73429;BME280;61643;49.564;17.412;2024-02-21T05:53:15;98681.16;;;4.31;100.00
73429;BME280;61643;49.564;17.412;2024-02-21T05:55:41;98677.88;;;4.35;100.00
73429;BME280;61643;49.564;17.412;2024-02-21T05:58:07;98672.97;;;4.32;100.00
73429;BME280;61643;49.564;17.412;2024-02-21T06:00:33;98668.47;;;4.26;100.00
73429;BME280;61643;49.564;17.412;2024-02-21T06:02:59;98668.47;;;4.26;100.00
73429;BME280;61643;49.564;17.412;2024-02-21T06:05:25;98665.38;;;4.29;100.00
73429;BME280;61643;49.564;17.412;2024-02-21T06:07:51;98676.03;;;4.29;100.00
73429;BME280;61643;49.564;17.412;2024-02-21T06:10:17;98680.75;;;4.27;100.00
73429;BME280;61643;49.564;17.412;2024-02-21T06:12:43;98674.59;;;4.27;100.00
73429;BME280;61643;49.564;17.412;2024-02-21T06:15:09;98677.88;;;4.22;100.00
73429;BME280;61643;49.564;17.412;2024-02-21T06:17:35;98674.19;;;4.17;100.00
73429;BME280;61643;49.564;17.412;2024-02-21T06:20:01;98677.88;;;4.16;100.00
73429;BME280;61643;49.564;17.412;2024-02-21T06:22:27;98687.72;;;4.15;100.00
73429;BME280;61643;49.564;17.412;2024-02-21T06:24:52;98684.44;;;4.13;100.00
73429;BME280;61643;49.564;17.412;2024-02-21T06:27:20;98677.25;;;4.07;100.00
73429;BME280;61643;49.564;17.412;2024-02-21T06:29:45;98676.03;;;4.03;100.00
73429;BME280;61643;49.564;17.412;2024-02-21T06:32:11;98682.59;;;4.07;100.00
73429;BME280;61643;49.564;17.412;2024-02-21T06:34:38;98671.94;;;4.07;100.00
73429;BME280;61643;49.564;17.412;2024-02-21T06:37:04;98689.75;;;4.13;100.00
73429;BME280;61643;49.564;17.412;2024-02-21T06:39:30;98680.34;;;4.11;100.00
73429;BME280;61643;49.564;17.412;2024-02-21T06:41:56;98690.56;;;4.14;100.00
73429;BME280;61643;49.564;17.412;2024-02-21T06:44:22;98694.47;;;4.18;100.00
73429;BME280;61643;49.564;17.412;2024-02-21T06:46:48;98694.69;;;4.23;100.00
73429;BME280;61643;49.564;17.412;2024-02-21T06:49:13;98703.28;;;4.31;100.00
73429;BME280;61643;49.564;17.412;2024-02-21T06:51:43;98708.22;;;4.41;100.00
73429;BME280;61643;49.564;17.412;2024-02-21T06:54:09;98705.56;;;4.47;100.00
73429;BME280;61643;49.564;17.412;2024-02-21T06:56:40;98704.72;;;4.54;100.00
73429;BME280;61643;49.564;17.412;2024-02-21T06:59:06;98698.56;;;4.60;100.00
73429;BME280;61643;49.564;17.412;2024-02-21T07:01:32;98684.22;;;4.61;100.00
73429;BME280;61643;49.564;17.412;2024-02-21T07:03:58;98693.00;;;4.74;100.00
73429;BME280;61643;49.564;17.412;2024-02-21T07:06:24;98689.28;;;4.82;100.00
73429;BME280;61643;49.564;17.412;2024-02-21T07:08:50;98686.63;;;4.95;100.00
73429;BME280;61643;49.564;17.412;2024-02-21T07:11:17;98689.25;;;5.08;100.00
73429;BME280;61643;49.564;17.412;2024-02-21T07:13:43;98684.28;;;5.18;100.00
73429;BME280;61643;49.564;17.412;2024-02-21T07:16:09;98680.31;;;5.34;100.00
73429;BME280;61643;49.564;17.412;2024-02-21T07:18:35;98670.66;;;5.33;100.00
73429;BME280;61643;49.564;17.412;2024-02-21T07:21:01;98682.50;;;5.50;100.00
73429;BME280;61643;49.564;17.412;2024-02-21T07:23:27;98676.75;;;5.46;100.00
73429;BME280;61643;49.564;17.412;2024-02-21T07:25:52;98679.44;;;5.46;100.00
73429;BME280;61643;49.564;17.412;2024-02-21T07:28:18;98675.75;;;5.47;100.00
73429;BME280;61643;49.564;17.412;2024-02-21T07:30:44;98681.09;;;5.47;100.00
73429;BME280;61643;49.564;17.412;2024-02-21T07:33:10;98674.53;;;5.43;100.00
73429;BME280;61643;49.564;17.412;2024-02-21T07:35:36;98670.25;;;5.42;100.00
73429;BME280;61643;49.564;17.412;2024-02-21T07:38:07;98673.91;;;5.48;100.00
73429;BME280;61643;49.564;17.412;2024-02-21T07:40:38;98678.38;;;5.54;100.00
73429;BME280;61643;49.564;17.412;2024-02-21T07:43:04;98668.75;;;5.53;100.00
73429;BME280;61643;49.564;17.412;2024-02-21T07:45:30;98657.28;;;5.46;100.00
73429;BME280;61643;49.564;17.412;2024-02-21T07:47:55;98661.81;;;5.45;100.00
73429;BME280;61643;49.564;17.412;2024-02-21T07:50:21;98646.41;;;5.41;100.00
73429;BME280;61643;49.564;17.412;2024-02-21T07:52:47;98663.59;;;5.52;100.00
73429;BME280;61643;49.564;17.412;2024-02-21T07:55:13;98655.16;;;5.55;100.00
73429;BME280;61643;49.564;17.412;2024-02-21T07:57:40;98637.94;;;5.51;100.00
73429;BME280;61643;49.564;17.412;2024-02-21T08:00:06;98652.44;;;5.61;100.00
73429;BME280;61643;49.564;17.412;2024-02-21T08:02:35;98651.38;;;5.69;100.00
73429;BME280;61643;49.564;17.412;2024-02-21T08:05:01;98643.72;;;5.79;100.00
73429;BME280;61643;49.564;17.412;2024-02-21T08:07:27;98633.88;;;5.86;100.00
73429;BME280;61643;49.564;17.412;2024-02-21T08:09:54;98633.75;;;5.99;100.00
73429;BME280;61643;49.564;17.412;2024-02-21T08:12:20;98631.47;;;6.03;100.00
73429;BME280;61643;49.564;17.412;2024-02-21T08:14:46;98630.59;;;6.09;100.00
73429;BME280;61643;49.564;17.412;2024-02-21T08:17:12;98642.59;;;6.24;100.00
73429;BME280;61643;49.564;17.412;2024-02-21T08:19:38;98629.81;;;6.26;100.00
73429;BME280;61643;49.564;17.412;2024-02-21T08:22:04;98630.56;;;6.40;100.00
73429;BME280;61643;49.564;17.412;2024-02-21T08:24:30;98621.09;;;6.37;100.00
73429;BME280;61643;49.564;17.412;2024-02-21T08:26:56;98638.66;;;6.52;100.00
73429;BME280;61643;49.564;17.412;2024-02-21T08:29:22;98629.41;;;6.48;100.00
73429;BME280;61643;49.564;17.412;2024-02-21T08:31:48;98627.38;;;6.50;100.00
73429;BME280;61643;49.564;17.412;2024-02-21T08:34:14;98616.50;;;6.44;100.00
73429;BME280;61643;49.564;17.412;2024-02-21T08:36:40;98612.78;;;6.46;100.00
73429;BME280;61643;49.564;17.412;2024-02-21T08:39:06;98609.91;;;6.47;100.00
73429;BME280;61643;49.564;17.412;2024-02-21T08:41:35;98615.03;;;6.49;100.00
73429;BME280;61643;49.564;17.412;2024-02-21T08:44:01;98619.94;;;6.52;100.00
73429;BME280;61643;49.564;17.412;2024-02-21T08:46:27;98620.69;;;6.59;100.00
73429;BME280;61643;49.564;17.412;2024-02-21T08:48:54;98624.25;;;6.71;100.00
73429;BME280;61643;49.564;17.412;2024-02-21T08:51:20;98614.31;;;6.78;100.00
73429;BME280;61643;49.564;17.412;2024-02-21T08:53:47;98613.41;;;6.84;100.00
73429;BME280;61643;49.564;17.412;2024-02-21T08:56:13;98618.84;;;6.96;100.00
73429;BME280;61643;49.564;17.412;2024-02-21T08:58:40;98616.25;;;7.07;100.00
73429;BME280;61643;49.564;17.412;2024-02-21T09:01:06;98616.53;;;7.17;100.00
73429;BME280;61643;49.564;17.412;2024-02-21T09:03:39;98616.81;;;7.27;100.00
73429;BME280;61643;49.564;17.412;2024-02-21T09:06:07;98598.66;;;7.29;100.00
73429;BME280;61643;49.564;17.412;2024-02-21T09:08:33;98608.63;;;7.40;100.00
73429;BME280;61643;49.564;17.412;2024-02-21T09:11:00;98606.75;;;7.41;100.00
73429;BME280;61643;49.564;17.412;2024-02-21T09:13:27;98609.34;;;7.48;100.00
73429;BME280;61643;49.564;17.412;2024-02-21T09:15:53;98602.81;;;7.43;100.00
73429;BME280;61643;49.564;17.412;2024-02-21T09:18:19;98613.50;;;7.43;100.00
73429;BME280;61643;49.564;17.412;2024-02-21T09:20:45;98610.31;;;7.35;100.00
73429;BME280;61643;49.564;17.412;2024-02-21T09:23:11;98614.06;;;7.34;100.00
73429;BME280;61643;49.564;17.412;2024-02-21T09:25:37;98614.84;;;7.34;100.00
73429;BME280;61643;49.564;17.412;2024-02-21T09:28:04;98619.53;;;7.39;100.00
73429;BME280;61643;49.564;17.412;2024-02-21T09:30:31;98615.81;;;7.40;100.00
73429;BME280;61643;49.564;17.412;2024-02-21T09:32:57;98612.91;;;7.41;100.00
73429;BME280;61643;49.564;17.412;2024-02-21T09:35:25;98607.69;;;7.47;100.00
73429;BME280;61643;49.564;17.412;2024-02-21T09:37:53;98608.22;;;7.55;100.00
73429;BME280;61643;49.564;17.412;2024-02-21T09:40:20;98607.97;;;7.57;100.00
73429;BME280;61643;49.564;17.412;2024-02-21T09:42:47;98609.38;;;7.59;100.00
73429;BME280;61643;49.564;17.412;2024-02-21T09:45:21;98610.94;;;7.67;100.00
73429;BME280;61643;49.564;17.412;2024-02-21T09:48:11;98615.72;;;7.76;100.00
73429;BME280;61643;49.564;17.412;2024-02-21T09:50:40;98616.91;;;7.80;100.00
73429;BME280;61643;49.564;17.412;2024-02-21T09:53:11;98612.00;;;7.77;100.00
73429;BME280;61643;49.564;17.412;2024-02-21T09:55:38;98613.16;;;7.70;100.00
73429;BME280;61643;49.564;17.412;2024-02-21T09:58:07;98611.72;;;7.67;100.00
73429;BME280;61643;49.564;17.412;2024-02-21T10:00:37;98616.34;;;7.60;100.00
73429;BME280;61643;49.564;17.412;2024-02-21T10:03:03;98614.38;;;7.56;100.00
73429;BME280;61643;49.564;17.412;2024-02-21T10:05:36;98607.03;;;7.51;100.00
73429;BME280;61643;49.564;17.412;2024-02-21T10:08:04;98603.75;;;7.49;100.00
73429;BME280;61643;49.564;17.412;2024-02-21T10:10:40;98614.38;;;7.56;100.00
73429;BME280;61643;49.564;17.412;2024-02-21T10:13:06;98617.63;;;7.58;100.00
73429;BME280;61643;49.564;17.412;2024-02-21T10:15:33;98612.19;;;7.64;100.00
73429;BME280;61643;49.564;17.412;2024-02-21T10:18:00;98609.97;;;7.61;100.00
73429;BME280;61643;49.564;17.412;2024-02-21T10:20:27;98603.22;;;7.59;100.00
73429;BME280;61643;49.564;17.412;2024-02-21T10:23:03;98603.22;;;7.59;100.00
73429;BME280;61643;49.564;17.412;2024-02-21T10:25:36;98579.22;;;7.52;100.00
73429;BME280;61643;49.564;17.412;2024-02-21T10:28:07;98603.94;;;7.66;100.00
73429;BME280;61643;49.564;17.412;2024-02-21T10:30:33;98604.41;;;7.74;100.00
73429;BME280;61643;49.564;17.412;2024-02-21T10:32:59;98602.44;;;7.81;100.00
73429;BME280;61643;49.564;17.412;2024-02-21T10:35:27;98604.13;;;7.94;100.00
73429;BME280;61643;49.564;17.412;2024-02-21T10:37:59;98592.94;;;7.97;100.00
73429;BME280;61643;49.564;17.412;2024-02-21T10:40:27;98605.31;;;8.10;100.00
73429;BME280;61643;49.564;17.412;2024-02-21T10:42:57;98588.50;;;8.14;100.00
73429;BME280;61643;49.564;17.412;2024-02-21T10:45:35;98590.84;;;8.11;100.00
73429;BME280;61643;49.564;17.412;2024-02-21T10:48:11;98586.66;;;8.15;100.00
73429;BME280;61643;49.564;17.412;2024-02-21T10:51:00;98583.75;;;8.16;100.00
73429;BME280;61643;49.564;17.412;2024-02-21T10:56:21;98581.06;;;8.05;100.00
73429;BME280;61643;49.564;17.412;2024-02-21T10:58:49;98582.34;;;8.02;100.00
73429;BME280;61643;49.564;17.412;2024-02-21T11:01:16;98572.53;;;7.96;100.00
73429;BME280;61643;49.564;17.412;2024-02-21T11:03:45;98568.69;;;7.92;100.00
73429;BME280;61643;49.564;17.412;2024-02-21T11:06:12;98565.06;;;7.86;100.00
73429;BME280;61643;49.564;17.412;2024-02-21T11:08:38;98553.84;;;7.78;100.00
73429;BME280;61643;49.564;17.412;2024-02-21T11:11:05;98553.28;;;7.76;100.00
73429;BME280;61643;49.564;17.412;2024-02-21T11:13:37;98558.06;;;7.74;100.00
73429;BME280;61643;49.564;17.412;2024-02-21T11:16:23;98563.28;;;7.69;100.00
73429;BME280;61643;49.564;17.412;2024-02-21T11:18:49;98558.25;;;7.61;100.00
73429;BME280;61643;49.564;17.412;2024-02-21T11:21:15;98540.44;;;7.55;100.00
73429;BME280;61643;49.564;17.412;2024-02-21T11:23:54;98534.25;;;7.54;100.00
73429;BME280;61643;49.564;17.412;2024-02-21T11:26:20;98531.22;;;7.51;100.00
73429;BME280;61643;49.564;17.412;2024-02-21T11:28:59;98518.84;;;7.50;100.00
73429;BME280;61643;49.564;17.412;2024-02-21T11:31:26;98526.44;;;7.53;100.00
73429;BME280;61643;49.564;17.412;2024-02-21T11:33:56;98510.34;;;7.53;100.00
73429;BME280;61643;49.564;17.412;2024-02-21T11:36:27;98513.19;;;7.58;100.00
73429;BME280;61643;49.564;17.412;2024-02-21T11:38:54;98511.06;;;7.60;100.00
73429;BME280;61643;49.564;17.412;2024-02-21T11:41:20;98509.56;;;7.64;100.00
73429;BME280;61643;49.564;17.412;2024-02-21T11:43:49;98503.31;;;7.70;100.00
73429;BME280;61643;49.564;17.412;2024-02-21T11:46:16;98496.88;;;7.71;100.00
73429;BME280;61643;49.564;17.412;2024-02-21T11:48:42;98493.97;;;7.72;100.00
73429;BME280;61643;49.564;17.412;2024-02-21T11:51:24;98497.00;;;7.76;100.00
73429;BME280;61643;49.564;17.412;2024-02-21T11:53:52;98500.25;;;7.78;100.00
73429;BME280;61643;49.564;17.412;2024-02-21T11:56:18;98494.91;;;7.78;100.00
73429;BME280;61643;49.564;17.412;2024-02-21T11:58:49;98488.50;;;7.79;100.00
73429;BME280;61643;49.564;17.412;2024-02-21T12:01:15;98486.78;;;7.84;100.00
73429;BME280;61643;49.564;17.412;2024-02-21T12:03:44;98471.97;;;7.82;100.00
73429;BME280;61643;49.564;17.412;2024-02-21T12:06:16;98485.03;;;7.90;100.00
73429;BME280;61643;49.564;17.412;2024-02-21T12:08:46;98470.44;;;7.86;100.00
73429;BME280;61643;49.564;17.412;2024-02-21T12:11:24;98478.63;;;7.91;100.00
73429;BME280;61643;49.564;17.412;2024-02-21T12:14:00;98469.19;;;7.88;100.00
73429;BME280;61643;49.564;17.412;2024-02-21T12:16:27;98485.63;;;7.92;100.00
73429;BME280;61643;49.564;17.412;2024-02-21T12:18:55;98479.44;;;7.91;100.00
73429;BME280;61643;49.564;17.412;2024-02-21T12:21:30;98475.00;;;7.85;100.00
73429;BME280;61643;49.564;17.412;2024-02-21T12:24:24;98478.50;;;7.86;100.00
73429;BME280;61643;49.564;17.412;2024-02-21T12:26:51;98466.84;;;7.80;100.00
73429;BME280;61643;49.564;17.412;2024-02-21T12:29:18;98465.56;;;7.83;100.00
73429;BME280;61643;49.564;17.412;2024-02-21T12:31:44;98454.84;;;7.83;100.00
73429;BME280;61643;49.564;17.412;2024-02-21T12:34:10;98471.63;;;7.90;100.00
73429;BME280;61643;49.564;17.412;2024-02-21T12:36:43;98470.94;;;7.95;100.00
73429;BME280;61643;49.564;17.412;2024-02-21T12:39:10;98464.63;;;8.01;100.00
73429;BME280;61643;49.564;17.412;2024-02-21T12:41:37;98458.78;;;8.04;100.00
73429;BME280;61643;49.564;17.412;2024-02-21T12:44:07;98452.63;;;8.03;100.00
73429;BME280;61643;49.564;17.412;2024-02-21T12:46:34;98465.56;;;8.06;100.00
73429;BME280;61643;49.564;17.412;2024-02-21T12:49:00;98456.38;;;8.02;100.00
73429;BME280;61643;49.564;17.412;2024-02-21T12:51:27;98465.66;;;8.00;100.00
73429;BME280;61643;49.564;17.412;2024-02-21T12:53:53;98451.34;;;7.94;100.00